sensor_id;sensor_type;location;lat;lon;timestamp;P1;durP1;ratioP1;P2;durP2;ratioP2
22223;SDS011;11281;52.194;21.006;2022-09-09T00:03:43;9.25;;;5.60;;
22223;SDS011;11281;52.194;21.006;2022-09-09T00:08:25;12.82;;;5.50;;
22223;SDS011;11281;52.194;21.006;2022-09-09T00:13:27;14.90;;;6.30;;
22223;SDS011;11281;52.194;21.006;2022-09-09T00:18:20;11.73;;;5.22;;
22223;SDS011;11281;52.194;21.006;2022-09-09T00:32:13;9.80;;;5.68;;
22223;SDS011;11281;52.194;21.006;2022-09-09T00:36:40;8.32;;;5.18;;
22223;SDS011;11281;52.194;21.006;2022-09-09T00:50:50;12.75;;;5.65;;
22223;SDS011;11281;52.194;21.006;2022-09-09T00:55:21;10.27;;;5.32;;
22223;SDS011;11281;52.194;21.006;2022-09-09T01:04:51;8.57;;;4.82;;
22223;SDS011;11281;52.194;21.006;2022-09-09T01:14:20;13.65;;;5.88;;
22223;SDS011;11281;52.194;21.006;2022-09-09T01:18:53;9.77;;;5.40;;
22223;SDS011;11281;52.194;21.006;2022-09-09T01:28:08;11.25;;;5.25;;
22223;SDS011;11281;52.194;21.006;2022-09-09T01:37:16;10.60;;;5.15;;
22223;SDS011;11281;52.194;21.006;2022-09-09T01:41:38;12.60;;;5.97;;
22223;SDS011;11281;52.194;21.006;2022-09-09T01:46:00;11.00;;;5.82;;
22223;SDS011;11281;52.194;21.006;2022-09-09T01:50:23;9.18;;;5.28;;
22223;SDS011;11281;52.194;21.006;2022-09-09T01:54:45;10.80;;;5.22;;
22223;SDS011;11281;52.194;21.006;2022-09-09T02:04:31;8.93;;;6.07;;
22223;SDS011;11281;52.194;21.006;2022-09-09T02:09:22;8.65;;;5.45;;
22223;SDS011;11281;52.194;21.006;2022-09-09T02:13:47;11.00;;;5.35;;
22223;SDS011;11281;52.194;21.006;2022-09-09T02:18:15;8.77;;;5.18;;
22223;SDS011;11281;52.194;21.006;2022-09-09T02:22:56;7.93;;;5.35;;
22223;SDS011;11281;52.194;21.006;2022-09-09T02:27:19;9.25;;;5.50;;
22223;SDS011;11281;52.194;21.006;2022-09-09T02:31:43;7.03;;;5.10;;
22223;SDS011;11281;52.194;21.006;2022-09-09T02:36:07;8.38;;;5.25;;
22223;SDS011;11281;52.194;21.006;2022-09-09T02:40:32;7.85;;;4.88;;
22223;SDS011;11281;52.194;21.006;2022-09-09T02:44:54;8.77;;;4.95;;
22223;SDS011;11281;52.194;21.006;2022-09-09T02:49:18;7.97;;;5.30;;
22223;SDS011;11281;52.194;21.006;2022-09-09T02:54:34;7.70;;;5.28;;
22223;SDS011;11281;52.194;21.006;2022-09-09T02:58:52;8.10;;;5.07;;
22223;SDS011;11281;52.194;21.006;2022-09-09T03:03:15;11.02;;;5.45;;
22223;SDS011;11281;52.194;21.006;2022-09-09T03:07:38;10.20;;;5.20;;
22223;SDS011;11281;52.194;21.006;2022-09-09T03:12:00;5.63;;;4.68;;
22223;SDS011;11281;52.194;21.006;2022-09-09T03:16:24;9.05;;;5.63;;
22223;SDS011;11281;52.194;21.006;2022-09-09T03:20:46;7.35;;;4.93;;
22223;SDS011;11281;52.194;21.006;2022-09-09T03:25:11;11.27;;;5.68;;
22223;SDS011;11281;52.194;21.006;2022-09-09T03:29:33;8.50;;;5.20;;
22223;SDS011;11281;52.194;21.006;2022-09-09T03:33:56;9.55;;;4.80;;
22223;SDS011;11281;52.194;21.006;2022-09-09T03:38:19;7.03;;;4.97;;
22223;SDS011;11281;52.194;21.006;2022-09-09T03:42:40;11.70;;;5.55;;
22223;SDS011;11281;52.194;21.006;2022-09-09T03:47:02;8.15;;;5.10;;
22223;SDS011;11281;52.194;21.006;2022-09-09T03:51:24;9.98;;;5.40;;
22223;SDS011;11281;52.194;21.006;2022-09-09T03:55:46;5.85;;;4.82;;
22223;SDS011;11281;52.194;21.006;2022-09-09T04:00:15;8.68;;;4.97;;
22223;SDS011;11281;52.194;21.006;2022-09-09T04:04:37;8.38;;;4.88;;
22223;SDS011;11281;52.194;21.006;2022-09-09T04:08:59;7.40;;;4.53;;
22223;SDS011;11281;52.194;21.006;2022-09-09T04:13:23;7.57;;;5.25;;
22223;SDS011;11281;52.194;21.006;2022-09-09T04:17:46;8.93;;;5.00;;
22223;SDS011;11281;52.194;21.006;2022-09-09T04:22:08;7.55;;;4.55;;
22223;SDS011;11281;52.194;21.006;2022-09-09T04:26:30;6.10;;;4.38;;
22223;SDS011;11281;52.194;21.006;2022-09-09T04:30:52;7.32;;;4.97;;
22223;SDS011;11281;52.194;21.006;2022-09-09T04:35:13;7.10;;;4.80;;
22223;SDS011;11281;52.194;21.006;2022-09-09T04:39:35;7.68;;;5.03;;
22223;SDS011;11281;52.194;21.006;2022-09-09T04:43:57;7.55;;;4.80;;
22223;SDS011;11281;52.194;21.006;2022-09-09T04:48:20;7.63;;;4.30;;
22223;SDS011;11281;52.194;21.006;2022-09-09T04:52:42;6.18;;;4.05;;
22223;SDS011;11281;52.194;21.006;2022-09-09T04:57:04;7.20;;;4.80;;
22223;SDS011;11281;52.194;21.006;2022-09-09T05:01:25;9.10;;;4.90;;
22223;SDS011;11281;52.194;21.006;2022-09-09T05:05:47;7.65;;;4.38;;
22223;SDS011;11281;52.194;21.006;2022-09-09T05:10:09;5.85;;;4.20;;
22223;SDS011;11281;52.194;21.006;2022-09-09T05:14:31;6.60;;;4.55;;
22223;SDS011;11281;52.194;21.006;2022-09-09T05:18:53;6.07;;;4.53;;
22223;SDS011;11281;52.194;21.006;2022-09-09T05:23:15;5.68;;;4.00;;
22223;SDS011;11281;52.194;21.006;2022-09-09T05:27:37;6.05;;;4.57;;
22223;SDS011;11281;52.194;21.006;2022-09-09T05:31:59;6.53;;;4.78;;
22223;SDS011;11281;52.194;21.006;2022-09-09T05:36:21;6.50;;;4.70;;
22223;SDS011;11281;52.194;21.006;2022-09-09T05:40:47;6.15;;;4.40;;
22223;SDS011;11281;52.194;21.006;2022-09-09T05:45:10;6.60;;;4.63;;
22223;SDS011;11281;52.194;21.006;2022-09-09T05:49:32;6.18;;;4.07;;
22223;SDS011;11281;52.194;21.006;2022-09-09T05:53:54;6.18;;;4.75;;
22223;SDS011;11281;52.194;21.006;2022-09-09T05:58:17;6.65;;;4.45;;
22223;SDS011;11281;52.194;21.006;2022-09-09T06:02:39;6.22;;;4.63;;
22223;SDS011;11281;52.194;21.006;2022-09-09T06:07:02;5.38;;;4.28;;
22223;SDS011;11281;52.194;21.006;2022-09-09T06:11:24;9.50;;;4.90;;
22223;SDS011;11281;52.194;21.006;2022-09-09T06:15:51;7.65;;;5.22;;
22223;SDS011;11281;52.194;21.006;2022-09-09T06:20:13;7.00;;;4.97;;
22223;SDS011;11281;52.194;21.006;2022-09-09T06:24:35;6.57;;;4.55;;
22223;SDS011;11281;52.194;21.006;2022-09-09T06:28:57;5.95;;;4.90;;
22223;SDS011;11281;52.194;21.006;2022-09-09T06:33:21;7.03;;;4.40;;
22223;SDS011;11281;52.194;21.006;2022-09-09T06:37:45;8.38;;;5.30;;
22223;SDS011;11281;52.194;21.006;2022-09-09T06:42:09;7.10;;;4.75;;
22223;SDS011;11281;52.194;21.006;2022-09-09T06:46:31;6.72;;;5.10;;
22223;SDS011;11281;52.194;21.006;2022-09-09T06:51:01;5.70;;;4.45;;
22223;SDS011;11281;52.194;21.006;2022-09-09T06:55:27;5.78;;;4.75;;
22223;SDS011;11281;52.194;21.006;2022-09-09T06:59:48;7.00;;;4.53;;
22223;SDS011;11281;52.194;21.006;2022-09-09T07:04:10;5.72;;;4.63;;
22223;SDS011;11281;52.194;21.006;2022-09-09T07:08:33;7.38;;;4.82;;
22223;SDS011;11281;52.194;21.006;2022-09-09T07:12:55;6.53;;;5.05;;
22223;SDS011;11281;52.194;21.006;2022-09-09T07:17:17;7.30;;;4.95;;
22223;SDS011;11281;52.194;21.006;2022-09-09T07:21:39;5.20;;;4.60;;
22223;SDS011;11281;52.194;21.006;2022-09-09T07:26:01;6.90;;;4.68;;
22223;SDS011;11281;52.194;21.006;2022-09-09T07:30:27;6.22;;;4.03;;
22223;SDS011;11281;52.194;21.006;2022-09-09T07:34:49;6.78;;;4.80;;
22223;SDS011;11281;52.194;21.006;2022-09-09T07:39:12;6.13;;;4.85;;
22223;SDS011;11281;52.194;21.006;2022-09-09T07:43:34;5.45;;;4.72;;
22223;SDS011;11281;52.194;21.006;2022-09-09T07:47:56;4.85;;;4.18;;
22223;SDS011;11281;52.194;21.006;2022-09-09T07:52:18;6.55;;;4.75;;
22223;SDS011;11281;52.194;21.006;2022-09-09T07:56:41;6.63;;;4.95;;
22223;SDS011;11281;52.194;21.006;2022-09-09T08:01:10;6.60;;;4.95;;
22223;SDS011;11281;52.194;21.006;2022-09-09T08:05:35;5.40;;;4.68;;
22223;SDS011;11281;52.194;21.006;2022-09-09T08:09:57;9.48;;;4.97;;
22223;SDS011;11281;52.194;21.006;2022-09-09T08:14:19;6.10;;;5.20;;
22223;SDS011;11281;52.194;21.006;2022-09-09T08:18:41;7.00;;;5.00;;
22223;SDS011;11281;52.194;21.006;2022-09-09T08:23:03;6.57;;;4.93;;
22223;SDS011;11281;52.194;21.006;2022-09-09T08:27:25;8.25;;;4.80;;
22223;SDS011;11281;52.194;21.006;2022-09-09T08:31:48;5.95;;;4.90;;
22223;SDS011;11281;52.194;21.006;2022-09-09T08:36:15;5.78;;;4.60;;
22223;SDS011;11281;52.194;21.006;2022-09-09T08:40:40;5.93;;;4.88;;
22223;SDS011;11281;52.194;21.006;2022-09-09T08:54:13;6.13;;;5.45;;
22223;SDS011;11281;52.194;21.006;2022-09-09T08:58:35;7.80;;;5.40;;
22223;SDS011;11281;52.194;21.006;2022-09-09T09:03:33;7.85;;;5.18;;
22223;SDS011;11281;52.194;21.006;2022-09-09T09:08:17;6.03;;;5.43;;
22223;SDS011;11281;52.194;21.006;2022-09-09T09:12:59;7.00;;;5.65;;
22223;SDS011;11281;52.194;21.006;2022-09-09T09:17:23;8.90;;;6.50;;
22223;SDS011;11281;52.194;21.006;2022-09-09T09:26:40;8.80;;;6.45;;
22223;SDS011;11281;52.194;21.006;2022-09-09T09:31:06;9.55;;;6.63;;
22223;SDS011;11281;52.194;21.006;2022-09-09T09:35:30;10.35;;;6.20;;
22223;SDS011;11281;52.194;21.006;2022-09-09T09:39:52;8.30;;;6.20;;
22223;SDS011;11281;52.194;21.006;2022-09-09T09:49:00;6.97;;;5.80;;
22223;SDS011;11281;52.194;21.006;2022-09-09T09:53:30;11.30;;;6.60;;
22223;SDS011;11281;52.194;21.006;2022-09-09T09:57:54;9.73;;;6.82;;
22223;SDS011;11281;52.194;21.006;2022-09-09T10:02:41;11.68;;;7.05;;
22223;SDS011;11281;52.194;21.006;2022-09-09T10:07:38;8.75;;;7.32;;
22223;SDS011;11281;52.194;21.006;2022-09-09T10:12:11;12.15;;;7.22;;
22223;SDS011;11281;52.194;21.006;2022-09-09T10:16:47;11.73;;;7.90;;
22223;SDS011;11281;52.194;21.006;2022-09-09T10:21:31;9.40;;;7.10;;
22223;SDS011;11281;52.194;21.006;2022-09-09T10:26:07;13.05;;;7.28;;
22223;SDS011;11281;52.194;21.006;2022-09-09T10:35:54;12.93;;;9.07;;
22223;SDS011;11281;52.194;21.006;2022-09-09T10:40:58;15.02;;;8.30;;
22223;SDS011;11281;52.194;21.006;2022-09-09T10:45:35;13.38;;;9.80;;
22223;SDS011;11281;52.194;21.006;2022-09-09T10:55:11;14.65;;;9.38;;
22223;SDS011;11281;52.194;21.006;2022-09-09T10:59:43;17.02;;;9.98;;
22223;SDS011;11281;52.194;21.006;2022-09-09T11:04:15;16.08;;;9.73;;
22223;SDS011;11281;52.194;21.006;2022-09-09T11:08:42;17.02;;;10.32;;
22223;SDS011;11281;52.194;21.006;2022-09-09T11:13:05;17.85;;;10.00;;
22223;SDS011;11281;52.194;21.006;2022-09-09T11:17:44;18.10;;;10.55;;
22223;SDS011;11281;52.194;21.006;2022-09-09T11:26:58;16.15;;;10.20;;
22223;SDS011;11281;52.194;21.006;2022-09-09T11:36:56;17.05;;;10.95;;
22223;SDS011;11281;52.194;21.006;2022-09-09T11:41:35;16.23;;;11.07;;
22223;SDS011;11281;52.194;21.006;2022-09-09T11:45:59;20.83;;;11.32;;
22223;SDS011;11281;52.194;21.006;2022-09-09T11:54:46;21.50;;;12.23;;
22223;SDS011;11281;52.194;21.006;2022-09-09T11:59:20;18.98;;;12.30;;
22223;SDS011;11281;52.194;21.006;2022-09-09T12:08:11;21.83;;;11.52;;
22223;SDS011;11281;52.194;21.006;2022-09-09T12:12:48;21.37;;;11.80;;
22223;SDS011;11281;52.194;21.006;2022-09-09T12:17:20;22.92;;;12.65;;
22223;SDS011;11281;52.194;21.006;2022-09-09T12:27:50;19.27;;;11.77;;
22223;SDS011;11281;52.194;21.006;2022-09-09T12:40:54;22.77;;;13.45;;
22223;SDS011;11281;52.194;21.006;2022-09-09T12:45:28;22.88;;;13.02;;
22223;SDS011;11281;52.194;21.006;2022-09-09T12:49:52;23.45;;;13.38;;
22223;SDS011;11281;52.194;21.006;2022-09-09T12:54:17;23.52;;;12.55;;
22223;SDS011;11281;52.194;21.006;2022-09-09T12:58:39;22.27;;;12.68;;
22223;SDS011;11281;52.194;21.006;2022-09-09T13:03:16;21.65;;;13.07;;
22223;SDS011;11281;52.194;21.006;2022-09-09T13:07:41;22.38;;;13.77;;
22223;SDS011;11281;52.194;21.006;2022-09-09T13:12:04;26.13;;;13.82;;
22223;SDS011;11281;52.194;21.006;2022-09-09T13:16:30;20.92;;;13.15;;
22223;SDS011;11281;52.194;21.006;2022-09-09T13:20:54;18.90;;;11.93;;
22223;SDS011;11281;52.194;21.006;2022-09-09T13:29:52;23.30;;;13.85;;
22223;SDS011;11281;52.194;21.006;2022-09-09T13:34:32;24.73;;;12.52;;
22223;SDS011;11281;52.194;21.006;2022-09-09T13:38:56;24.83;;;13.73;;
22223;SDS011;11281;52.194;21.006;2022-09-09T13:43:24;23.85;;;13.02;;
22223;SDS011;11281;52.194;21.006;2022-09-09T13:47:48;24.33;;;13.05;;
22223;SDS011;11281;52.194;21.006;2022-09-09T13:52:14;23.40;;;13.07;;
22223;SDS011;11281;52.194;21.006;2022-09-09T13:56:39;24.58;;;13.57;;
22223;SDS011;11281;52.194;21.006;2022-09-09T14:01:02;20.92;;;13.70;;
22223;SDS011;11281;52.194;21.006;2022-09-09T14:05:24;21.30;;;12.48;;
22223;SDS011;11281;52.194;21.006;2022-09-09T14:09:46;22.52;;;13.20;;
22223;SDS011;11281;52.194;21.006;2022-09-09T14:14:12;22.02;;;12.88;;
22223;SDS011;11281;52.194;21.006;2022-09-09T14:18:34;20.20;;;12.98;;
22223;SDS011;11281;52.194;21.006;2022-09-09T14:22:56;24.50;;;14.90;;
22223;SDS011;11281;52.194;21.006;2022-09-09T14:27:19;22.35;;;14.40;;
22223;SDS011;11281;52.194;21.006;2022-09-09T14:31:40;21.63;;;14.05;;
22223;SDS011;11281;52.194;21.006;2022-09-09T14:36:03;22.40;;;13.15;;
22223;SDS011;11281;52.194;21.006;2022-09-09T14:40:25;27.92;;;14.32;;
22223;SDS011;11281;52.194;21.006;2022-09-09T14:44:46;24.27;;;13.63;;
22223;SDS011;11281;52.194;21.006;2022-09-09T14:49:08;22.90;;;13.32;;
22223;SDS011;11281;52.194;21.006;2022-09-09T14:53:33;21.45;;;12.50;;
22223;SDS011;11281;52.194;21.006;2022-09-09T14:57:55;24.33;;;13.23;;
22223;SDS011;11281;52.194;21.006;2022-09-09T15:02:17;23.13;;;12.45;;
22223;SDS011;11281;52.194;21.006;2022-09-09T15:06:39;23.30;;;12.07;;
22223;SDS011;11281;52.194;21.006;2022-09-09T15:11:03;20.15;;;13.05;;
22223;SDS011;11281;52.194;21.006;2022-09-09T15:15:28;19.30;;;12.52;;
22223;SDS011;11281;52.194;21.006;2022-09-09T15:19:50;21.25;;;11.98;;
22223;SDS011;11281;52.194;21.006;2022-09-09T15:24:11;22.60;;;12.10;;
22223;SDS011;11281;52.194;21.006;2022-09-09T15:28:35;19.92;;;11.20;;
22223;SDS011;11281;52.194;21.006;2022-09-09T15:32:58;21.67;;;12.40;;
22223;SDS011;11281;52.194;21.006;2022-09-09T15:37:20;23.60;;;12.73;;
22223;SDS011;11281;52.194;21.006;2022-09-09T15:41:42;19.77;;;12.40;;
22223;SDS011;11281;52.194;21.006;2022-09-09T15:46:30;20.73;;;12.45;;
22223;SDS011;11281;52.194;21.006;2022-09-09T15:51:02;19.48;;;11.88;;
22223;SDS011;11281;52.194;21.006;2022-09-09T15:55:25;18.55;;;11.77;;
22223;SDS011;11281;52.194;21.006;2022-09-09T15:59:47;22.15;;;13.18;;
22223;SDS011;11281;52.194;21.006;2022-09-09T16:04:09;20.25;;;12.68;;
22223;SDS011;11281;52.194;21.006;2022-09-09T16:08:35;19.35;;;12.40;;
22223;SDS011;11281;52.194;21.006;2022-09-09T16:12:58;19.75;;;11.93;;
22223;SDS011;11281;52.194;21.006;2022-09-09T16:17:20;16.67;;;11.43;;
22223;SDS011;11281;52.194;21.006;2022-09-09T16:21:43;23.08;;;12.65;;
22223;SDS011;11281;52.194;21.006;2022-09-09T16:26:13;24.58;;;13.05;;
22223;SDS011;11281;52.194;21.006;2022-09-09T16:30:36;23.45;;;12.55;;
22223;SDS011;11281;52.194;21.006;2022-09-09T16:34:58;18.88;;;11.10;;
22223;SDS011;11281;52.194;21.006;2022-09-09T16:39:20;20.25;;;12.65;;
22223;SDS011;11281;52.194;21.006;2022-09-09T16:43:42;19.00;;;11.95;;
22223;SDS011;11281;52.194;21.006;2022-09-09T16:48:04;20.92;;;13.07;;
22223;SDS011;11281;52.194;21.006;2022-09-09T16:52:26;19.05;;;12.02;;
22223;SDS011;11281;52.194;21.006;2022-09-09T16:56:47;17.83;;;11.70;;
22223;SDS011;11281;52.194;21.006;2022-09-09T17:01:10;21.77;;;12.98;;
22223;SDS011;11281;52.194;21.006;2022-09-09T17:05:39;25.00;;;13.13;;
22223;SDS011;11281;52.194;21.006;2022-09-09T17:10:01;21.67;;;12.52;;
22223;SDS011;11281;52.194;21.006;2022-09-09T17:14:23;21.27;;;12.77;;
22223;SDS011;11281;52.194;21.006;2022-09-09T17:18:45;20.20;;;12.27;;
22223;SDS011;11281;52.194;21.006;2022-09-09T17:23:10;20.90;;;12.43;;
22223;SDS011;11281;52.194;21.006;2022-09-09T17:27:36;18.88;;;11.68;;
22223;SDS011;11281;52.194;21.006;2022-09-09T17:31:57;23.83;;;14.50;;
22223;SDS011;11281;52.194;21.006;2022-09-09T17:36:21;29.80;;;15.85;;
22223;SDS011;11281;52.194;21.006;2022-09-09T17:40:48;18.23;;;11.27;;
22223;SDS011;11281;52.194;21.006;2022-09-09T17:45:10;27.33;;;20.02;;
22223;SDS011;11281;52.194;21.006;2022-09-09T17:49:32;17.98;;;11.25;;
22223;SDS011;11281;52.194;21.006;2022-09-09T17:53:55;22.60;;;11.52;;
22223;SDS011;11281;52.194;21.006;2022-09-09T17:58:19;15.98;;;11.07;;
22223;SDS011;11281;52.194;21.006;2022-09-09T18:02:42;15.73;;;10.45;;
22223;SDS011;11281;52.194;21.006;2022-09-09T18:07:04;19.05;;;11.35;;
22223;SDS011;11281;52.194;21.006;2022-09-09T18:11:27;14.73;;;9.63;;
22223;SDS011;11281;52.194;21.006;2022-09-09T18:15:52;17.02;;;9.88;;
22223;SDS011;11281;52.194;21.006;2022-09-09T18:20:14;16.38;;;10.50;;
22223;SDS011;11281;52.194;21.006;2022-09-09T18:24:37;17.27;;;10.20;;
22223;SDS011;11281;52.194;21.006;2022-09-09T18:28:59;16.30;;;10.20;;
22223;SDS011;11281;52.194;21.006;2022-09-09T18:33:25;14.93;;;9.82;;
22223;SDS011;11281;52.194;21.006;2022-09-09T18:37:47;13.27;;;9.55;;
22223;SDS011;11281;52.194;21.006;2022-09-09T18:42:09;17.38;;;11.63;;
22223;SDS011;11281;52.194;21.006;2022-09-09T18:46:33;15.60;;;9.23;;
22223;SDS011;11281;52.194;21.006;2022-09-09T18:51:00;14.75;;;9.60;;
22223;SDS011;11281;52.194;21.006;2022-09-09T18:55:27;13.27;;;10.35;;
22223;SDS011;11281;52.194;21.006;2022-09-09T18:59:49;14.43;;;9.70;;
22223;SDS011;11281;52.194;21.006;2022-09-09T19:04:14;17.77;;;11.82;;
22223;SDS011;11281;52.194;21.006;2022-09-09T19:08:37;15.32;;;9.15;;
22223;SDS011;11281;52.194;21.006;2022-09-09T19:13:03;16.08;;;10.00;;
22223;SDS011;11281;52.194;21.006;2022-09-09T19:17:25;14.07;;;8.70;;
22223;SDS011;11281;52.194;21.006;2022-09-09T19:21:48;22.35;;;13.60;;
22223;SDS011;11281;52.194;21.006;2022-09-09T19:26:12;21.02;;;15.27;;
22223;SDS011;11281;52.194;21.006;2022-09-09T19:30:37;16.90;;;10.23;;
22223;SDS011;11281;52.194;21.006;2022-09-09T19:34:59;17.58;;;10.30;;
22223;SDS011;11281;52.194;21.006;2022-09-09T19:39:21;19.42;;;12.15;;
22223;SDS011;11281;52.194;21.006;2022-09-09T19:43:44;21.70;;;12.43;;
22223;SDS011;11281;52.194;21.006;2022-09-09T19:48:06;15.57;;;8.95;;
22223;SDS011;11281;52.194;21.006;2022-09-09T19:52:29;13.80;;;9.18;;
22223;SDS011;11281;52.194;21.006;2022-09-09T19:56:51;16.23;;;9.80;;
22223;SDS011;11281;52.194;21.006;2022-09-09T20:01:14;28.67;;;18.67;;
22223;SDS011;11281;52.194;21.006;2022-09-09T20:05:40;20.38;;;11.05;;
22223;SDS011;11281;52.194;21.006;2022-09-09T20:10:02;15.20;;;9.50;;
22223;SDS011;11281;52.194;21.006;2022-09-09T20:14:23;14.07;;;9.38;;
22223;SDS011;11281;52.194;21.006;2022-09-09T20:18:50;12.05;;;8.32;;
22223;SDS011;11281;52.194;21.006;2022-09-09T20:23:14;14.02;;;8.57;;
22223;SDS011;11281;52.194;21.006;2022-09-09T20:27:38;11.63;;;7.90;;
22223;SDS011;11281;52.194;21.006;2022-09-09T20:32:00;12.23;;;8.32;;
22223;SDS011;11281;52.194;21.006;2022-09-09T20:36:23;11.65;;;8.55;;
22223;SDS011;11281;52.194;21.006;2022-09-09T20:40:48;11.63;;;7.93;;
22223;SDS011;11281;52.194;21.006;2022-09-09T20:45:10;11.10;;;6.93;;
22223;SDS011;11281;52.194;21.006;2022-09-09T20:49:36;13.90;;;8.93;;
22223;SDS011;11281;52.194;21.006;2022-09-09T20:54:01;9.98;;;6.80;;
22223;SDS011;11281;52.194;21.006;2022-09-09T20:58:25;10.73;;;6.50;;
22223;SDS011;11281;52.194;21.006;2022-09-09T21:02:47;8.55;;;6.65;;
22223;SDS011;11281;52.194;21.006;2022-09-09T21:07:10;9.63;;;6.50;;
22223;SDS011;11281;52.194;21.006;2022-09-09T21:11:32;10.35;;;7.03;;
22223;SDS011;11281;52.194;21.006;2022-09-09T21:15:55;11.73;;;6.78;;
22223;SDS011;11281;52.194;21.006;2022-09-09T21:20:17;11.50;;;6.45;;
22223;SDS011;11281;52.194;21.006;2022-09-09T21:24:39;12.10;;;7.85;;
22223;SDS011;11281;52.194;21.006;2022-09-09T21:29:00;11.15;;;7.38;;
22223;SDS011;11281;52.194;21.006;2022-09-09T21:33:23;11.68;;;7.18;;
22223;SDS011;11281;52.194;21.006;2022-09-09T21:37:48;9.63;;;6.85;;
22223;SDS011;11281;52.194;21.006;2022-09-09T21:42:09;9.55;;;6.97;;
22223;SDS011;11281;52.194;21.006;2022-09-09T21:46:31;9.98;;;6.70;;
22223;SDS011;11281;52.194;21.006;2022-09-09T21:50:53;10.98;;;7.32;;
22223;SDS011;11281;52.194;21.006;2022-09-09T21:55:15;9.32;;;6.20;;
22223;SDS011;11281;52.194;21.006;2022-09-09T21:59:37;9.35;;;6.68;;
22223;SDS011;11281;52.194;21.006;2022-09-09T22:03:59;8.75;;;6.00;;
22223;SDS011;11281;52.194;21.006;2022-09-09T22:08:21;8.45;;;5.90;;
22223;SDS011;11281;52.194;21.006;2022-09-09T22:12:42;10.40;;;6.63;;
22223;SDS011;11281;52.194;21.006;2022-09-09T22:17:04;10.55;;;7.68;;
22223;SDS011;11281;52.194;21.006;2022-09-09T22:21:29;9.68;;;6.28;;
22223;SDS011;11281;52.194;21.006;2022-09-09T22:25:53;9.63;;;6.45;;
22223;SDS011;11281;52.194;21.006;2022-09-09T22:30:15;8.75;;;6.68;;
22223;SDS011;11281;52.194;21.006;2022-09-09T22:34:37;10.65;;;6.82;;
22223;SDS011;11281;52.194;21.006;2022-09-09T22:38:59;9.50;;;6.63;;
22223;SDS011;11281;52.194;21.006;2022-09-09T22:43:21;13.35;;;6.63;;
22223;SDS011;11281;52.194;21.006;2022-09-09T22:47:43;11.25;;;6.80;;
22223;SDS011;11281;52.194;21.006;2022-09-09T22:52:05;8.65;;;7.28;;
22223;SDS011;11281;52.194;21.006;2022-09-09T22:56:29;10.63;;;7.03;;
22223;SDS011;11281;52.194;21.006;2022-09-09T23:00:51;11.40;;;6.18;;
22223;SDS011;11281;52.194;21.006;2022-09-09T23:05:13;10.15;;;7.03;;
22223;SDS011;11281;52.194;21.006;2022-09-09T23:09:35;11.15;;;6.70;;
22223;SDS011;11281;52.194;21.006;2022-09-09T23:13:58;8.90;;;6.50;;
22223;SDS011;11281;52.194;21.006;2022-09-09T23:18:22;7.65;;;6.30;;
22223;SDS011;11281;52.194;21.006;2022-09-09T23:22:46;9.80;;;6.05;;
22223;SDS011;11281;52.194;21.006;2022-09-09T23:27:08;10.02;;;6.25;;
22223;SDS011;11281;52.194;21.006;2022-09-09T23:31:31;8.93;;;6.40;;
22223;SDS011;11281;52.194;21.006;2022-09-09T23:35:58;10.82;;;6.88;;
22223;SDS011;11281;52.194;21.006;2022-09-09T23:40:21;9.73;;;6.70;;
22223;SDS011;11281;52.194;21.006;2022-09-09T23:44:43;10.75;;;6.78;;
22223;SDS011;11281;52.194;21.006;2022-09-09T23:49:06;10.35;;;7.05;;
22223;SDS011;11281;52.194;21.006;2022-09-09T23:53:29;11.82;;;7.53;;
22223;SDS011;11281;52.194;21.006;2022-09-09T23:57:51;11.05;;;6.90;;
